Time;durP1;ratioP1;P1;durP2;ratioP2;P2;SDS_P1;SDS_P2;PMS_P1;PMS_P2;Temp;Humidity;BMP_temperature;BMP_pressure;BME280_temperature;BME280_humidity;BME280_pressure;Samples;Min_cycle;Max_cycle;Signal;HPM_P1;HPM_P2
2022/12/19 00:01:17;;;;;;;43.88;28.63;;;1.20;99.90;;;;;;5049785;28;20077;-53
2022/12/19 00:03:54;;;;;;;43.97;28.67;;;1.20;99.90;;;;;;5048392;28;20041;-53
2022/12/19 00:06:20;;;;;;;47.38;28.90;;;1.20;99.90;;;;;;5048870;28;20037;-54
2022/12/19 00:08:48;;;;;;;47.42;30.13;;;1.30;99.90;;;;;;5048884;28;20095;-54
2022/12/19 00:11:14;;;;;;;48.53;30.80;;;1.30;99.90;;;;;;5049374;28;20312;-53
2022/12/19 00:13:41;;;;;;;51.63;30.73;;;1.30;99.90;;;;;;5047830;28;20073;-53
2022/12/19 00:16:10;;;;;;;48.20;28.38;;;1.30;99.90;;;;;;5049486;28;20510;-54
2022/12/19 00:18:42;;;;;;;52.20;28.75;;;1.30;99.90;;;;;;5048865;28;20429;-54
2022/12/19 00:21:10;;;;;;;46.78;29.00;;;1.30;99.90;;;;;;5029343;28;20588;-53
2022/12/19 00:23:36;;;;;;;49.88;28.70;;;1.30;99.90;;;;;;5034599;28;20044;-54
2022/12/19 00:26:13;;;;;;;53.42;30.05;;;1.30;99.90;;;;;;5049522;28;20036;-53
2022/12/19 00:28:39;;;;;;;52.60;32.42;;;1.30;99.90;;;;;;5048458;28;20489;-54
2022/12/19 00:31:04;;;;;;;56.22;32.92;;;1.30;99.90;;;;;;5049177;28;20044;-52
2022/12/19 00:33:30;;;;;;;53.57;30.50;;;1.20;99.90;;;;;;5047375;28;20033;-52
2022/12/19 00:36:05;;;;;;;53.33;33.43;;;1.20;99.90;;;;;;5049397;28;20047;-55
2022/12/19 00:38:30;;;;;;;49.38;32.63;;;1.20;99.90;;;;;;5048266;28;20037;-54
2022/12/19 00:41:06;;;;;;;52.35;28.13;;;1.20;99.90;;;;;;5048839;28;20044;-54
2022/12/19 00:43:32;;;;;;;58.10;31.83;;;1.20;99.90;;;;;;5047740;28;20513;-50
2022/12/19 00:45:57;;;;;;;55.50;33.63;;;1.20;99.90;;;;;;5048091;28;20033;-50
2022/12/19 00:48:23;;;;;;;51.57;32.70;;;1.30;99.90;;;;;;5051181;28;20162;-53
2022/12/19 00:50:48;;;;;;;52.20;32.73;;;1.30;99.90;;;;;;5052476;28;20056;-51
2022/12/19 00:53:14;;;;;;;54.57;30.87;;;1.30;99.90;;;;;;5051590;28;20037;-50
2022/12/19 00:55:39;;;;;;;51.93;31.47;;;1.30;99.90;;;;;;5052528;28;20084;-50
2022/12/19 00:58:05;;;;;;;53.40;34.50;;;1.30;99.90;;;;;;5051347;28;20540;-52
2022/12/19 01:00:30;;;;;;;51.10;30.03;;;1.30;99.90;;;;;;5051780;28;20033;-49
2022/12/19 01:02:57;;;;;;;48.00;29.43;;;1.30;99.90;;;;;;5052075;28;20076;-51
2022/12/19 01:05:23;;;;;;;50.10;30.63;;;1.30;99.90;;;;;;5051598;28;20043;-50
2022/12/19 01:07:48;;;;;;;50.67;29.47;;;1.40;99.90;;;;;;5052620;28;20037;-49
2022/12/19 01:10:14;;;;;;;49.27;30.53;;;1.40;99.90;;;;;;5051981;28;20124;-50
2022/12/19 01:12:45;;;;;;;53.23;30.47;;;1.30;99.90;;;;;;5052702;28;20040;-50
2022/12/19 01:15:16;;;;;;;51.35;28.77;;;1.40;99.90;;;;;;5050294;28;20047;-50
2022/12/19 01:17:42;;;;;;;50.25;30.05;;;1.40;99.90;;;;;;5051925;28;20058;-52
2022/12/19 01:20:08;;;;;;;56.17;32.50;;;1.40;99.90;;;;;;5052352;28;20410;-54
2022/12/19 01:22:34;;;;;;;60.30;33.17;;;1.40;99.90;;;;;;5051935;28;20333;-53
2022/12/19 01:24:59;;;;;;;49.53;31.07;;;1.40;99.90;;;;;;5050834;28;20116;-51
2022/12/19 01:27:25;;;;;;;53.10;33.03;;;1.40;99.90;;;;;;5051757;28;20048;-55
2022/12/19 01:29:50;;;;;;;59.53;33.43;;;1.50;99.90;;;;;;5051778;28;20502;-54
2022/12/19 01:32:16;;;;;;;56.63;35.13;;;1.50;99.90;;;;;;5051356;28;20498;-52
2022/12/19 01:34:42;;;;;;;56.67;30.13;;;1.50;99.90;;;;;;5051009;28;20036;-53
2022/12/19 01:37:07;;;;;;;53.70;32.53;;;1.50;99.90;;;;;;5051215;28;20337;-54
2022/12/19 01:39:33;;;;;;;53.60;33.20;;;1.50;99.90;;;;;;5052032;28;20178;-53
2022/12/19 01:41:58;;;;;;;54.90;31.07;;;1.60;99.90;;;;;;5050752;28;20538;-53
2022/12/19 01:44:25;;;;;;;54.50;33.13;;;1.60;99.90;;;;;;5050587;28;20437;-50
2022/12/19 01:46:56;;;;;;;54.67;35.15;;;1.60;99.90;;;;;;5049457;28;20045;-54
2022/12/19 01:49:31;;;;;;;54.03;32.13;;;1.60;99.90;;;;;;5051694;28;20068;-54
2022/12/19 01:52:05;;;;;;;56.08;30.35;;;1.70;99.90;;;;;;5049158;28;20103;-54
2022/12/19 01:54:34;;;;;;;55.53;31.10;;;1.70;99.90;;;;;;5050308;28;20041;-54
2022/12/19 01:57:01;;;;;;;54.60;30.95;;;1.70;99.90;;;;;;5050379;28;20040;-52
2022/12/19 01:59:45;;;;;;;57.75;33.80;;;1.70;99.90;;;;;;5051331;28;20063;-55
2022/12/19 02:02:19;;;;;;;51.70;29.13;;;1.70;99.90;;;;;;5050679;28;20413;-54
2022/12/19 02:04:46;;;;;;;60.38;35.90;;;1.70;99.90;;;;;;5050474;28;20099;-54
2022/12/19 02:07:14;;;;;;;54.28;33.38;;;1.80;99.90;;;;;;5050053;28;20045;-55
2022/12/19 02:09:40;;;;;;;54.45;32.78;;;1.80;99.90;;;;;;5051830;28;20048;-50
2022/12/19 02:12:06;;;;;;;53.30;34.22;;;1.80;99.90;;;;;;5051175;28;20098;-50
2022/12/19 02:14:33;;;;;;;56.30;31.80;;;1.80;99.90;;;;;;5050024;28;20041;-50
2022/12/19 02:17:39;;;;;;;56.85;30.60;;;1.80;99.90;;;;;;5049870;28;20687;-52
2022/12/19 02:20:27;;;;;;;51.75;30.20;;;1.90;99.90;;;;;;5031431;28;20033;-52
2022/12/19 02:23:04;;;;;;;54.50;29.75;;;1.90;99.90;;;;;;5033644;28;20040;-54
2022/12/19 02:25:33;;;;;;;;;;;1.90;99.90;;;;;;5051559;28;20178;-52
2022/12/19 02:28:26;;;;;;;56.33;30.42;;;1.90;99.90;;;;;;5049379;28;20097;-50
2022/12/19 02:30:55;;;;;;;50.92;29.90;;;1.90;99.90;;;;;;5050773;28;20041;-51
2022/12/19 02:33:50;;;;;;;53.20;28.20;;;1.90;99.90;;;;;;5049629;28;20417;-52
2022/12/19 02:36:23;;;;;;;63.90;33.90;;;1.90;99.90;;;;;;5048047;28;20083;-53
2022/12/19 02:39:14;;;;;;;67.40;34.97;;;1.90;99.90;;;;;;5050001;28;20711;-51
2022/12/19 02:41:45;;;;;;;72.57;36.53;;;1.90;99.90;;;;;;5050905;28;20591;-50
2022/12/19 02:44:22;;;;;;;78.38;42.72;;;1.90;99.90;;;;;;5048453;28;20071;-53
2022/12/19 02:46:48;;;;;;;;;;;1.90;99.90;;;;;;5050733;28;20041;-50
2022/12/19 02:49:14;;;;;;;88.88;47.13;;;1.90;99.90;;;;;;5050231;28;19963;-50
2022/12/19 02:51:40;;;;;;;97.15;50.45;;;1.90;99.90;;;;;;5051089;28;20453;-54
2022/12/19 02:54:05;;;;;;;94.73;45.73;;;1.90;99.90;;;;;;5049564;28;20384;-55
2022/12/19 02:56:43;;;;;;;90.22;43.10;;;1.90;99.90;;;;;;5032923;28;20033;-51
2022/12/19 02:59:28;;;;;;;96.72;48.28;;;1.80;99.90;;;;;;5049852;28;20090;-55
2022/12/19 03:02:29;;;;;;;103.25;47.42;;;1.90;99.90;;;;;;5050991;28;20049;-54
2022/12/19 03:05:06;;;;;;;101.15;49.30;;;1.90;99.90;;;;;;5049535;28;20400;-55
2022/12/19 03:08:00;;;;;;;99.60;45.85;;;1.90;99.90;;;;;;5049345;28;20039;-54
2022/12/19 03:10:37;;;;;;;102.70;49.92;;;1.90;99.90;;;;;;5050020;28;20431;-55
2022/12/19 03:13:18;;;;;;;110.50;48.40;;;1.90;99.90;;;;;;5049311;28;20321;-53
2022/12/19 03:15:44;;;;;;;99.85;44.88;;;2.00;99.90;;;;;;5049862;28;20426;-52
2022/12/19 03:18:10;;;;;;;100.45;50.00;;;2.00;99.90;;;;;;5047849;28;20104;-55
2022/12/19 03:20:48;;;;;;;105.90;51.45;;;2.00;99.90;;;;;;5049642;28;20186;-55
2022/12/19 03:23:15;;;;;;;98.78;49.25;;;2.00;99.90;;;;;;5047626;28;20048;-54
2022/12/19 03:25:44;;;;;;;101.32;50.42;;;2.10;99.90;;;;;;5049249;28;20033;-55
2022/12/19 03:28:47;;;;;;;96.90;45.28;;;2.10;99.90;;;;;;5049482;28;20414;-55
2022/12/19 03:31:15;;;;;;;97.50;49.75;;;2.20;99.90;;;;;;5026441;28;20041;-51
2022/12/19 03:33:42;;;;;;;100.45;47.20;;;2.20;99.90;;;;;;5025804;28;20481;-50
2022/12/19 03:36:14;;;;;;;92.68;47.30;;;2.30;99.90;;;;;;5026747;28;20542;-50
2022/12/19 03:38:43;;;;;;;98.47;46.83;;;2.30;99.90;;;;;;5026481;28;20108;-52
2022/12/19 03:41:10;;;;;;;96.43;46.35;;;2.40;99.90;;;;;;5026873;28;20088;-51
2022/12/19 03:43:38;;;;;;;96.05;46.30;;;2.40;99.90;;;;;;5026046;28;20641;-51
2022/12/19 03:46:12;;;;;;;88.40;40.80;;;2.40;99.90;;;;;;5026828;28;20133;-50
2022/12/19 03:48:41;;;;;;;100.90;47.08;;;2.50;99.90;;;;;;5026343;28;20128;-52
2022/12/19 03:51:25;;;;;;;102.80;45.17;;;2.50;99.90;;;;;;5026761;28;20052;-50
2022/12/19 03:54:05;;;;;;;99.57;49.42;;;2.60;99.90;;;;;;5025988;28;20071;-51
2022/12/19 03:56:51;;;;;;;100.47;45.30;;;2.60;99.90;;;;;;5026537;28;20041;-50
2022/12/19 03:59:32;;;;;;;96.95;45.40;;;2.70;99.90;;;;;;5026516;28;20120;-50
2022/12/19 04:01:58;;;;;;;94.75;43.30;;;2.80;99.90;;;;;;5026756;28;20061;-50
2022/12/19 04:04:27;;;;;;;86.75;47.40;;;2.80;99.90;;;;;;5025656;28;20128;-50
2022/12/19 04:06:53;;;;;;;86.03;42.28;;;2.90;99.90;;;;;;5030725;28;20052;-53
2022/12/19 04:09:21;;;;;;;84.90;41.67;;;3.00;99.90;;;;;;5048992;28;20045;-51
2022/12/19 04:11:52;;;;;;;91.07;48.65;;;3.00;99.90;;;;;;5049044;28;20033;-54
2022/12/19 04:14:29;;;;;;;88.70;45.35;;;3.00;99.90;;;;;;5047982;28;20044;-55
2022/12/19 04:17:01;;;;;;;85.45;45.75;;;3.00;99.90;;;;;;5048890;28;20159;-52
2022/12/19 04:19:33;;;;;;;80.97;44.30;;;3.10;99.90;;;;;;5049513;28;20041;-54
2022/12/19 04:22:06;;;;;;;76.85;40.65;;;3.10;99.90;;;;;;5051268;28;20510;-54
2022/12/19 04:24:39;;;;;;;83.85;43.58;;;3.10;99.90;;;;;;5051837;28;20049;-55
2022/12/19 04:27:07;;;;;;;70.30;38.67;;;3.10;99.90;;;;;;5052662;28;20490;-53
2022/12/19 04:29:35;;;;;;;74.38;42.97;;;3.20;99.90;;;;;;5053469;28;20044;-51
2022/12/19 04:32:03;;;;;;;86.40;40.72;;;3.20;99.90;;;;;;5052933;28;20041;-54
2022/12/19 04:34:28;;;;;;;72.88;39.78;;;3.20;99.90;;;;;;5052552;28;20052;-55
2022/12/19 04:36:54;;;;;;;76.90;43.37;;;3.20;99.90;;;;;;5052655;28;20040;-54
2022/12/19 04:39:19;;;;;;;69.03;37.90;;;3.20;99.90;;;;;;5052945;28;20045;-54
2022/12/19 04:41:45;;;;;;;83.27;44.90;;;3.20;99.90;;;;;;5052426;28;20068;-54
2022/12/19 04:44:11;;;;;;;80.23;41.03;;;3.30;99.90;;;;;;5052120;28;20037;-54
2022/12/19 04:46:36;;;;;;;77.67;41.47;;;3.30;99.90;;;;;;5052942;28;20041;-55
2022/12/19 04:49:02;;;;;;;72.63;40.27;;;3.30;99.90;;;;;;5052536;28;20041;-55
2022/12/19 04:51:27;;;;;;;78.10;44.33;;;3.30;99.90;;;;;;5052137;28;20121;-55
2022/12/19 04:53:53;;;;;;;74.17;40.47;;;3.30;99.90;;;;;;5051165;28;20041;-55
2022/12/19 04:56:18;;;;;;;71.43;32.37;;;3.40;99.90;;;;;;5052507;28;20041;-53
2022/12/19 04:58:44;;;;;;;83.57;43.57;;;3.40;99.90;;;;;;5052259;28;20037;-51
2022/12/19 05:01:09;;;;;;;70.00;35.47;;;3.40;99.90;;;;;;5052769;28;20037;-51
2022/12/19 05:03:36;;;;;;;69.93;37.20;;;3.40;99.90;;;;;;5051299;28;20037;-52
2022/12/19 05:06:12;;;;;;;75.93;40.33;;;3.50;99.90;;;;;;5052319;28;20571;-54
2022/12/19 05:08:40;;;;;;;76.38;38.53;;;3.50;99.90;;;;;;5051777;28;20565;-50
2022/12/19 05:11:07;;;;;;;82.40;44.70;;;3.50;99.90;;;;;;5052509;28;20044;-50
2022/12/19 05:13:33;;;;;;;78.45;44.42;;;3.60;99.90;;;;;;5050855;28;20069;-51
2022/12/19 05:16:07;;;;;;;81.67;39.80;;;3.60;99.90;;;;;;5034354;28;20073;-52
2022/12/19 05:18:33;;;;;;;86.72;45.85;;;3.60;99.90;;;;;;5051671;28;20045;-52
2022/12/19 05:20:59;;;;;;;83.50;39.88;;;3.70;99.90;;;;;;5051668;28;20052;-53
2022/12/19 05:23:25;;;;;;;74.43;43.97;;;3.80;99.90;;;;;;5050786;28;20406;-52
2022/12/19 05:25:51;;;;;;;67.70;34.72;;;3.80;99.90;;;;;;5052311;28;20501;-51
2022/12/19 05:28:17;;;;;;;86.67;46.70;;;3.90;99.90;;;;;;5051114;28;20040;-52
2022/12/19 05:30:43;;;;;;;87.55;45.10;;;3.90;99.90;;;;;;5032220;28;20176;-52
2022/12/19 05:33:09;;;;;;;78.90;41.40;;;4.00;99.90;;;;;;5062192;28;20421;-53
2022/12/19 05:35:35;;;;;;;71.15;38.95;;;4.00;99.90;;;;;;5049599;28;20037;-50
2022/12/19 05:38:01;;;;;;;79.57;39.83;;;4.00;99.90;;;;;;5051583;28;20111;-53
2022/12/19 05:40:27;;;;;;;80.35;42.60;;;4.00;99.90;;;;;;5050834;28;20029;-55
2022/12/19 05:42:53;;;;;;;74.70;40.08;;;4.00;99.90;;;;;;5050908;28;20033;-53
2022/12/19 05:45:19;;;;;;;79.40;42.03;;;4.10;99.90;;;;;;5050605;28;20037;-52
2022/12/19 05:47:45;;;;;;;72.63;36.77;;;4.10;99.90;;;;;;5051101;28;20055;-55
2022/12/19 05:50:11;;;;;;;;;;;4.10;99.90;;;;;;5042411;28;20087;-53
2022/12/19 05:52:38;;;;;;;85.35;44.78;;;4.10;99.90;;;;;;5047898;28;19921;-51
2022/12/19 05:55:04;;;;;;;70.75;36.30;;;4.10;99.90;;;;;;5039536;28;20571;-55
2022/12/19 05:57:30;;;;;;;;;;;4.10;99.90;;;;;;5051517;28;20540;-54
2022/12/19 05:59:55;;;;;;;68.63;35.42;;;4.10;99.90;;;;;;5051524;28;19917;-51
2022/12/19 06:02:21;;;;;;;65.50;35.33;;;4.10;99.90;;;;;;5051773;28;20329;-55
2022/12/19 06:04:47;;;;;;;60.93;33.07;;;4.10;99.90;;;;;;5050153;28;20055;-54
2022/12/19 06:07:12;;;;;;;70.37;39.63;;;4.20;99.90;;;;;;5051121;28;20040;-53
2022/12/19 06:09:38;;;;;;;67.87;32.80;;;4.20;99.90;;;;;;5050381;28;20494;-55
2022/12/19 06:12:04;;;;;;;64.83;37.63;;;4.30;99.90;;;;;;5051407;28;20554;-55
2022/12/19 06:14:29;;;;;;;62.05;32.10;;;4.30;99.90;;;;;;5050397;28;20537;-55
2022/12/19 06:16:55;;;;;;;63.30;36.33;;;4.30;99.90;;;;;;5050645;28;20041;-56
2022/12/19 06:19:21;;;;;;;74.30;37.47;;;4.40;99.90;;;;;;5049751;28;20379;-55
2022/12/19 06:21:46;;;;;;;66.97;35.92;;;4.40;99.90;;;;;;5050089;28;20114;-50
2022/12/19 06:24:12;;;;;;;46.83;26.80;;;4.50;99.90;;;;;;5050248;28;20041;-51
2022/12/19 06:26:37;;;;;;;58.13;31.27;;;4.50;99.90;;;;;;5050811;28;20048;-51
2022/12/19 06:29:03;;;;;;;65.90;35.87;;;4.60;99.90;;;;;;5050584;28;20063;-51
2022/12/19 06:31:28;;;;;;;51.27;33.77;;;4.60;99.90;;;;;;5050591;28;20087;-50
2022/12/19 06:33:54;;;;;;;56.80;30.33;;;4.60;99.90;;;;;;5049721;28;20482;-51
2022/12/19 06:36:26;;;;;;;58.67;35.58;;;4.70;99.90;;;;;;5049460;28;20072;-51
2022/12/19 06:38:53;;;;;;;57.70;32.92;;;4.70;99.90;;;;;;5047307;28;20037;-51
2022/12/19 06:44:06;;;;;;;55.38;29.83;;;4.70;99.90;;;;;;5048955;28;20044;-51
2022/12/19 06:46:32;;;;;;;57.67;34.10;;;4.70;99.90;;;;;;5049399;28;20043;-54
2022/12/19 06:48:58;;;;;;;52.70;28.83;;;4.70;99.90;;;;;;5049862;28;20080;-50
2022/12/19 06:51:23;;;;;;;58.70;35.05;;;4.70;99.90;;;;;;5049807;28;20084;-51
2022/12/19 06:53:49;;;;;;;53.83;34.10;;;4.70;99.90;;;;;;5049475;28;20052;-52
2022/12/19 06:56:16;;;;;;;64.10;33.95;;;4.70;99.90;;;;;;5048261;28;20140;-51
2022/12/19 06:58:41;;;;;;;;;;;4.70;99.90;;;;;;5051094;28;20041;-51
2022/12/19 07:01:14;;;;;;;54.80;31.98;;;4.70;99.90;;;;;;5049576;28;20341;-51
2022/12/19 07:03:40;;;;;;;60.08;35.83;;;4.80;99.90;;;;;;5047911;28;20033;-51
2022/12/19 07:06:06;;;;;;;53.65;33.05;;;4.80;99.90;;;;;;5049836;28;20041;-52
2022/12/19 07:08:32;;;;;;;55.78;32.30;;;4.80;99.90;;;;;;5049931;28;20036;-53
2022/12/19 07:10:58;;;;;;;63.70;35.90;;;4.80;99.90;;;;;;5049762;28;20041;-53
2022/12/19 07:13:24;;;;;;;55.63;32.92;;;4.80;99.90;;;;;;5049011;28;20072;-51
2022/12/19 07:15:51;;;;;;;54.83;30.90;;;4.80;99.90;;;;;;5049036;28;20075;-51
2022/12/19 07:18:17;;;;;;;51.42;28.95;;;4.90;99.90;;;;;;5049689;28;20280;-55
2022/12/19 07:20:43;;;;;;;55.08;29.48;;;4.90;99.90;;;;;;5049597;28;20489;-55
2022/12/19 07:23:12;;;;;;;45.33;26.35;;;4.90;99.90;;;;;;5047283;28;20056;-53
2022/12/19 07:25:38;;;;;;;47.80;28.23;;;5.00;99.90;;;;;;5048310;28;20053;-51
2022/12/19 07:28:04;;;;;;;51.80;29.30;;;5.00;99.90;;;;;;5049648;28;20073;-51
2022/12/19 07:30:30;;;;;;;49.80;29.35;;;5.10;99.90;;;;;;5049614;28;20149;-55
2022/12/19 07:32:55;;;;;;;48.97;30.03;;;5.10;99.90;;;;;;5047265;28;20128;-54
2022/12/19 07:35:21;;;;;;;43.93;24.90;;;5.10;99.90;;;;;;5049687;28;20275;-54
2022/12/19 07:37:48;;;;;;;39.53;26.48;;;5.10;99.90;;;;;;5045719;28;20175;-54
2022/12/19 07:40:14;;;;;;;47.22;29.50;;;5.20;99.90;;;;;;5049565;28;20052;-55
2022/12/19 07:42:40;;;;;;;43.17;24.98;;;5.20;99.90;;;;;;5048777;28;20067;-54
2022/12/19 07:45:06;;;;;;;40.27;24.47;;;5.20;99.90;;;;;;5038647;28;20053;-54
2022/12/19 07:47:31;;;;;;;45.25;31.55;;;5.20;99.90;;;;;;5048187;28;20037;-55
2022/12/19 07:49:57;;;;;;;44.67;26.23;;;5.30;99.90;;;;;;5045533;28;20056;-55
2022/12/19 07:52:22;;;;;;;43.37;25.23;;;5.30;99.90;;;;;;5043865;28;20127;-55
2022/12/19 07:54:48;;;;;;;41.73;26.10;;;5.30;99.90;;;;;;5044730;28;20398;-55
2022/12/19 07:57:13;;;;;;;45.53;25.17;;;5.30;99.90;;;;;;5043195;28;20107;-55
2022/12/19 07:59:39;;;;;;;40.63;27.00;;;5.30;99.90;;;;;;5045244;28;20041;-54
2022/12/19 08:02:05;;;;;;;45.80;28.30;;;5.40;99.90;;;;;;5045302;28;20529;-51
2022/12/19 08:04:30;;;;;;;41.58;26.27;;;5.30;99.90;;;;;;5044450;28;20055;-52
2022/12/19 08:06:56;;;;;;;39.03;26.47;;;5.30;99.90;;;;;;5044095;28;20033;-54
2022/12/19 08:09:21;;;;;;;37.07;21.53;;;5.40;99.90;;;;;;5044941;28;20051;-52
2022/12/19 08:11:47;;;;;;;42.70;24.13;;;5.40;99.90;;;;;;5044761;28;20045;-52
2022/12/19 08:14:12;;;;;;;40.27;24.43;;;5.50;99.90;;;;;;5043234;28;20041;-53
2022/12/19 08:16:38;;;;;;;44.23;26.50;;;5.50;99.90;;;;;;5044160;28;20064;-54
2022/12/19 08:19:03;;;;;;;29.97;19.07;;;5.50;99.90;;;;;;5044193;28;20037;-53
2022/12/19 08:21:29;;;;;;;34.60;21.63;;;5.50;99.90;;;;;;5044339;28;20148;-53
2022/12/19 08:23:55;;;;;;;37.67;24.00;;;5.60;99.90;;;;;;5043524;28;20075;-52
2022/12/19 08:26:24;;;;;;;36.00;23.77;;;5.60;99.90;;;;;;5044175;28;20083;-55
2022/12/19 08:28:54;;;;;;;42.50;25.00;;;5.60;99.90;;;;;;5042716;28;20390;-51
2022/12/19 08:31:23;;;;;;;43.22;25.85;;;5.60;99.90;;;;;;5041355;28;20124;-51
2022/12/19 08:33:49;;;;;;;42.90;27.27;;;5.70;99.90;;;;;;5042538;28;20522;-53
2022/12/19 08:36:19;;;;;;;40.83;24.73;;;5.70;99.90;;;;;;5044389;28;20037;-54
2022/12/19 08:38:45;;;;;;;36.25;21.42;;;5.70;99.90;;;;;;5044015;28;20033;-51
2022/12/19 08:41:12;;;;;;;42.08;27.60;;;5.70;99.90;;;;;;5043720;28;20037;-53
2022/12/19 08:43:38;;;;;;;39.65;23.60;;;5.80;99.90;;;;;;5043482;28;20090;-50
2022/12/19 08:46:04;;;;;;;43.45;26.73;;;5.80;99.90;;;;;;5044808;28;20612;-51
2022/12/19 08:48:31;;;;;;;38.22;24.65;;;5.80;99.90;;;;;;5044168;28;20033;-51
2022/12/19 08:50:59;;;;;;;37.75;23.98;;;5.80;99.90;;;;;;5039155;28;20074;-51
2022/12/19 08:53:26;;;;;;;39.35;24.30;;;5.90;99.90;;;;;;5042797;28;20417;-53
2022/12/19 08:55:56;;;;;;;37.97;24.13;;;5.90;99.90;;;;;;5043844;28;20119;-53
2022/12/19 08:58:23;;;;;;;44.90;26.55;;;5.90;99.90;;;;;;5039077;28;20295;-53
2022/12/19 09:00:49;;;;;;;40.90;26.00;;;6.00;99.90;;;;;;5040060;28;20087;-52
2022/12/19 09:03:14;;;;;;;41.33;28.17;;;5.90;99.90;;;;;;5041209;28;20029;-50
2022/12/19 09:05:40;;;;;;;40.03;23.00;;;6.00;99.90;;;;;;5027340;28;20068;-54
2022/12/19 09:08:06;;;;;;;47.23;28.70;;;6.10;99.90;;;;;;5043183;28;20107;-55
2022/12/19 09:10:35;;;;;;;47.58;29.77;;;6.10;99.90;;;;;;5045466;28;20048;-51
2022/12/19 09:13:01;;;;;;;45.20;27.60;;;6.20;99.90;;;;;;5044716;28;20283;-52
2022/12/19 09:15:26;;;;;;;41.83;26.17;;;6.20;99.90;;;;;;5044253;28;20033;-55
2022/12/19 09:17:52;;;;;;;41.07;25.43;;;6.30;99.90;;;;;;5044508;28;20044;-55
2022/12/19 09:20:17;;;;;;;40.60;26.43;;;6.20;99.90;;;;;;5057456;28;20040;-51
2022/12/19 09:22:43;;;;;;;45.77;25.13;;;6.30;99.90;;;;;;5043237;28;20041;-51
2022/12/19 09:25:09;;;;;;;44.00;25.87;;;6.30;99.90;;;;;;5025177;28;20043;-55
2022/12/19 09:27:35;;;;;;;;;;;6.30;99.90;;;;;;5045358;28;20041;-55
2022/12/19 09:30:01;;;;;;;34.17;23.58;;;6.40;99.90;;;;;;5044071;28;19970;-55
2022/12/19 09:32:27;;;;;;;38.78;22.73;;;6.40;99.90;;;;;;5042054;28;20279;-54
2022/12/19 09:34:52;;;;;;;37.33;25.43;;;6.40;99.90;;;;;;5044046;28;20025;-55
2022/12/19 09:37:18;;;;;;;34.07;21.47;;;6.40;99.90;;;;;;5042641;28;20036;-55
2022/12/19 09:39:47;;;;;;;35.33;22.80;;;6.40;99.90;;;;;;5044612;28;20512;-51
2022/12/19 09:42:40;;;;;;;35.47;22.80;;;6.50;99.90;;;;;;5044445;28;20175;-55
2022/12/19 09:45:39;;;;;;;32.20;22.60;;;6.50;99.90;;;;;;5040975;28;20041;-54
2022/12/19 09:48:12;;;;;;;33.55;21.60;;;6.50;99.90;;;;;;5041914;28;20037;-55
2022/12/19 09:51:09;;;;;;;25.30;18.85;;;6.50;99.90;;;;;;5041103;28;20444;-53
2022/12/19 09:53:40;;;;;;;31.88;20.23;;;6.60;99.90;;;;;;5037347;28;20037;-53
2022/12/19 09:56:14;;;;;;;32.15;21.13;;;6.60;99.90;;;;;;5040002;28;20128;-54
2022/12/19 09:58:48;;;;;;;32.45;21.63;;;6.60;99.90;;;;;;5038718;28;20072;-54
2022/12/19 10:01:26;;;;;;;29.85;21.05;;;6.70;99.90;;;;;;5040985;28;20045;-54
2022/12/19 10:04:14;;;;;;;29.77;23.55;;;6.70;99.90;;;;;;5036174;28;20128;-54
2022/12/19 10:06:40;;;;;;;27.05;20.08;;;6.70;99.90;;;;;;5043256;28;20068;-55
2022/12/19 10:09:18;;;;;;;26.37;16.50;;;6.70;99.90;;;;;;5042865;28;20551;-54
2022/12/19 10:12:07;;;;;;;28.10;19.52;;;6.80;99.90;;;;;;5042646;28;20045;-54
2022/12/19 10:14:49;;;;;;;27.30;17.85;;;6.80;99.90;;;;;;5030671;28;20048;-51
2022/12/19 10:17:23;;;;;;;24.20;17.73;;;6.90;99.90;;;;;;5038225;28;20103;-56
2022/12/19 10:20:14;;;;;;;27.52;20.23;;;6.90;99.90;;;;;;5028028;28;20041;-51
2022/12/19 10:23:01;;;;;;;24.65;16.13;;;6.90;99.90;;;;;;5040226;28;20094;-52
2022/12/19 10:25:52;;;;;;;27.67;18.77;;;6.90;99.90;;;;;;5037380;28;20048;-53
2022/12/19 10:28:44;;;;;;;26.52;18.83;;;6.90;99.90;;;;;;5043362;28;20514;-54
2022/12/19 10:31:21;;;;;;;25.45;17.13;;;7.00;99.90;;;;;;5038696;28;20049;-55
2022/12/19 10:34:05;;;;;;;;;;;7.00;99.90;;;;;;5032559;28;20037;-52
2022/12/19 10:36:41;;;;;;;21.33;16.23;;;7.00;99.90;;;;;;5033118;28;19917;-50
2022/12/19 10:39:22;;;;;;;26.75;15.82;;;7.00;99.90;;;;;;5033461;28;20132;-52
2022/12/19 10:41:53;;;;;;;24.52;16.63;;;7.00;99.90;;;;;;5033306;28;20047;-54
2022/12/19 10:44:21;;;;;;;25.30;16.40;;;7.10;99.90;;;;;;5035402;28;20098;-54
2022/12/19 10:46:48;;;;;;;23.20;17.15;;;7.10;99.90;;;;;;5040972;28;20172;-53
2022/12/19 10:49:16;;;;;;;23.23;15.68;;;7.10;99.90;;;;;;5036861;28;20951;-54
2022/12/19 10:51:54;;;;;;;25.27;17.27;;;7.10;99.90;;;;;;5038498;28;20058;-53
2022/12/19 10:54:22;;;;;;;23.38;16.63;;;7.10;99.90;;;;;;5038583;28;20110;-53
2022/12/19 10:56:47;;;;;;;24.48;17.10;;;7.10;99.90;;;;;;5037669;28;20544;-51
2022/12/19 10:59:19;;;;;;;19.97;12.77;;;7.10;99.90;;;;;;5038352;28;20045;-53
2022/12/19 11:01:46;;;;;;;24.17;17.00;;;7.20;99.90;;;;;;5036810;28;20533;-54
2022/12/19 11:04:24;;;;;;;22.88;16.27;;;7.20;99.90;;;;;;5036380;28;20044;-54
2022/12/19 11:07:03;;;;;;;22.00;14.15;;;7.20;99.90;;;;;;5037207;28;20049;-54
2022/12/19 11:09:34;;;;;;;20.25;13.98;;;7.20;99.90;;;;;;5036975;28;20435;-52
2022/12/19 11:12:06;;;;;;;23.45;16.10;;;7.30;99.90;;;;;;5032895;28;20052;-54
2022/12/19 11:14:32;;;;;;;23.10;14.38;;;7.30;99.90;;;;;;5031389;28;20175;-55
2022/12/19 11:16:58;;;;;;;18.77;14.43;;;7.30;99.90;;;;;;5037830;28;20064;-53
2022/12/19 11:19:28;;;;;;;20.75;15.85;;;7.30;99.90;;;;;;5070678;28;20033;-53
2022/12/19 11:21:58;;;;;;;19.38;13.90;;;7.30;99.90;;;;;;5028782;28;20051;-55
2022/12/19 11:24:34;;;;;;;25.38;16.48;;;7.30;99.90;;;;;;5038533;28;20037;-55
2022/12/19 11:26:59;;;;;;;24.55;16.85;;;7.30;99.90;;;;;;5033983;28;20445;-52
2022/12/19 11:29:48;;;;;;;23.13;16.97;;;7.30;99.90;;;;;;5032932;28;20051;-52
2022/12/19 11:32:33;;;;;;;25.77;16.27;;;7.30;99.90;;;;;;5032455;28;20581;-54
2022/12/19 11:35:01;;;;;;;23.45;15.90;;;7.30;99.90;;;;;;5034813;28;20420;-54
2022/12/19 11:37:43;;;;;;;21.63;15.75;;;7.30;99.90;;;;;;5031513;28;20505;-54
2022/12/19 11:40:31;;;;;;;27.55;15.38;;;7.30;99.90;;;;;;5039068;28;20043;-53
2022/12/19 11:43:16;;;;;;;22.75;15.07;;;7.30;99.90;;;;;;5031511;28;20052;-54
2022/12/19 11:45:55;;;;;;;19.13;15.07;;;7.40;99.90;;;;;;5036152;28;20037;-53
2022/12/19 11:48:39;;;;;;;23.15;16.00;;;7.30;99.90;;;;;;5035149;28;20033;-55
2022/12/19 11:51:32;;;;;;;24.27;15.55;;;7.40;99.90;;;;;;5050510;28;20487;-53
2022/12/19 11:54:00;;;;;;;25.25;15.80;;;7.40;99.90;;;;;;5034980;28;20045;-54
2022/12/19 11:56:28;;;;;;;19.05;14.45;;;7.40;99.90;;;;;;5035446;28;20079;-55
2022/12/19 11:59:01;;;;;;;19.50;13.35;;;7.40;99.90;;;;;;5043567;28;20293;-54
2022/12/19 12:02:05;;;;;;;23.10;15.20;;;7.40;99.90;;;;;;5043477;28;20098;-54
2022/12/19 12:04:42;;;;;;;19.88;15.02;;;7.50;99.90;;;;;;5044450;28;20502;-51
2022/12/19 12:07:08;;;;;;;23.45;15.77;;;7.50;99.90;;;;;;5032129;28;20040;-54
2022/12/19 12:09:38;;;;;;;22.10;14.98;;;7.60;99.90;;;;;;5044700;28;20067;-54
2022/12/19 12:12:17;;;;;;;19.90;15.43;;;7.60;99.90;;;;;;5030477;28;20052;-56
2022/12/19 12:15:13;;;;;;;17.42;13.63;;;7.60;99.90;;;;;;5042765;28;20354;-55
2022/12/19 12:17:50;;;;;;;17.60;14.57;;;7.60;99.90;;;;;;5040277;28;20122;-56
2022/12/19 12:20:20;;;;;;;16.45;14.05;;;7.60;99.90;;;;;;5041941;28;20151;-54
2022/12/19 12:23:07;;;;;;;19.05;13.40;;;7.70;99.90;;;;;;5041169;28;20037;-55
2022/12/19 12:25:58;;;;;;;18.88;13.10;;;7.70;99.90;;;;;;5042395;28;20537;-54
2022/12/19 12:28:47;;;;;;;18.60;13.10;;;7.70;99.90;;;;;;5042835;28;20540;-51
2022/12/19 12:31:26;;;;;;;15.32;12.48;;;7.80;99.90;;;;;;5040032;28;20029;-54
2022/12/19 12:34:22;;;;;;;21.25;14.55;;;7.80;99.90;;;;;;5041268;28;20037;-55
2022/12/19 12:37:06;;;;;;;14.60;11.05;;;7.80;99.90;;;;;;5043121;28;20383;-54
2022/12/19 12:40:02;;;;;;;19.73;11.85;;;7.80;99.90;;;;;;5043086;28;20029;-53
2022/12/19 12:42:52;;;;;;;14.88;12.35;;;7.80;99.90;;;;;;5045045;28;20047;-55
2022/12/19 12:45:19;;;;;;;15.65;11.50;;;7.80;99.90;;;;;;5046915;28;20480;-54
2022/12/19 12:47:50;;;;;;;16.30;11.73;;;7.90;99.90;;;;;;5046747;28;20071;-55
2022/12/19 12:50:17;;;;;;;15.85;12.18;;;7.90;99.90;;;;;;5047604;28;20427;-54
2022/12/19 12:52:46;;;;;;;18.60;12.10;;;7.90;99.90;;;;;;5044657;28;20048;-56
2022/12/19 12:55:28;;;;;;;14.13;12.13;;;7.90;99.90;;;;;;5047631;28;20091;-56
2022/12/19 12:57:54;;;;;;;16.08;12.38;;;7.90;99.90;;;;;;5046778;28;20037;-53
2022/12/19 13:00:27;;;;;;;14.65;11.73;;;7.90;99.90;;;;;;5045793;28;20496;-55